createdAt,value
2017-12-05T15:22:04.560Z,8.28
2017-12-05T15:23:18.438Z,8.63
2017-12-05T15:24:32.438Z,8.78
2017-12-05T15:25:46.746Z,8.71
2017-12-05T15:27:00.734Z,8.61
2017-12-05T15:28:14.572Z,8.45
2017-12-05T15:29:28.132Z,8.35
2017-12-05T15:30:42.308Z,8.2
2017-12-05T15:31:56.784Z,8.09
2017-12-05T15:33:10.979Z,8.01
2017-12-05T15:34:24.757Z,8.02
2017-12-05T15:35:38.394Z,8.02
2017-12-05T15:36:52.197Z,8.08
2017-12-05T15:38:07.191Z,7.93
2017-12-05T15:39:25.866Z,8.05
2017-12-05T15:40:41.834Z,7.95
2017-12-05T15:42:20.511Z,7.98
2017-12-05T15:48:00.968Z,7.85
2017-12-05T15:49:23.998Z,7.98
2017-12-05T15:50:55.767Z,7.88
2017-12-05T15:52:19.345Z,8.01
2017-12-05T15:53:38.214Z,7.93
2017-12-05T15:54:55.605Z,7.85
2017-12-05T15:56:12.831Z,7.77
2017-12-05T15:57:29.976Z,7.85
2017-12-05T15:58:46.751Z,7.83
2017-12-05T16:00:03.187Z,7.87
2017-12-05T16:01:20.113Z,7.9
2017-12-05T16:02:34.451Z,7.91
2017-12-05T16:04:20.634Z,7.84
2017-12-05T16:05:37.615Z,7.83
2017-12-05T16:06:53.334Z,7.83
2017-12-05T16:08:24.908Z,7.83
2017-12-05T16:09:38.907Z,7.87
2017-12-05T16:10:52.602Z,7.84
2017-12-05T16:12:07.039Z,7.98
2017-12-05T16:13:22.136Z,7.91
2017-12-05T16:14:52.039Z,7.84
2017-12-05T16:16:08.495Z,7.87
2017-12-05T16:17:43.377Z,7.81
2017-12-05T16:20:07.364Z,7.85
2017-12-05T16:26:37.841Z,7.7
2017-12-05T16:28:14.168Z,7.81
2017-12-05T16:29:30.281Z,7.75
2017-12-05T16:30:44.669Z,7.9
2017-12-05T16:31:59.585Z,7.88
2017-12-05T16:33:13.523Z,7.77
2017-12-05T16:34:28.819Z,7.66
2017-12-05T16:35:44.699Z,7.77
2017-12-05T16:37:14.412Z,7.62
2017-12-05T16:38:31.073Z,7.61
2017-12-05T16:39:47.717Z,7.67
2017-12-05T16:41:01.784Z,7.69
2017-12-05T16:44:29.113Z,7.56
2017-12-05T16:45:42.963Z,7.66
2017-12-05T16:46:56.841Z,7.66
2017-12-05T16:48:11.016Z,7.66
2017-12-05T16:49:24.410Z,7.59
2017-12-05T16:50:38.046Z,7.55
2017-12-05T16:51:52.247Z,7.66
2017-12-05T16:53:06.221Z,7.58
2017-12-05T16:54:19.951Z,7.4
2017-12-05T16:55:35.124Z,7.46
2017-12-05T16:56:48.543Z,7.47
2017-12-05T16:58:04.191Z,7.4
2017-12-05T16:59:26.848Z,7.4
2017-12-05T17:00:47.444Z,7.48
2017-12-05T17:02:07.680Z,7.44
2017-12-05T17:03:22.094Z,7.47
2017-12-05T17:04:36.528Z,7.44
2017-12-05T17:05:56.891Z,7.44
2017-12-05T17:07:13.157Z,7.46
2017-12-05T17:10:53.519Z,7.51
2017-12-05T17:15:11.415Z,7.44
2017-12-05T17:16:51.709Z,7.44
2017-12-05T17:19:10.427Z,7.5
2017-12-05T17:20:25.436Z,7.36
2017-12-05T17:21:40.328Z,7.55
2017-12-05T17:22:58.598Z,7.47
2017-12-05T17:25:06.792Z,7.43
2017-12-05T17:27:00.176Z,7.5
2017-12-05T17:29:30.009Z,7.48
2017-12-05T17:30:44.375Z,7.56
2017-12-05T17:31:58.791Z,7.5
2017-12-05T17:33:12.795Z,7.58
2017-12-05T17:34:27.353Z,7.5
2017-12-05T17:37:25.793Z,7.41
2017-12-05T17:38:39.836Z,7.5
2017-12-05T17:39:54.051Z,7.48
2017-12-05T17:41:23.118Z,7.48
2017-12-05T17:42:37.157Z,7.51
2017-12-05T17:43:50.908Z,7.51
2017-12-05T17:45:05.410Z,7.46
2017-12-05T17:47:03.790Z,7.47
2017-12-05T17:48:18.910Z,7.48
2017-12-05T17:49:34.388Z,7.46
2017-12-05T17:50:49.671Z,7.44
2017-12-05T17:52:05.938Z,7.43
2017-12-05T17:53:20.667Z,7.4
2017-12-05T17:54:43.336Z,7.46
2017-12-05T17:56:28.724Z,7.39
2017-12-05T17:59:41.507Z,7.41
2017-12-05T18:02:05.339Z,7.47
2017-12-05T18:03:44.938Z,7.43
2017-12-05T18:05:14.001Z,7.51
2017-12-05T18:06:35.716Z,7.44
2017-12-05T18:07:52.055Z,7.4
2017-12-05T18:09:07.165Z,7.44
2017-12-05T18:10:21.626Z,7.48
2017-12-05T18:11:49.616Z,7.4
2017-12-05T18:13:20.430Z,7.51
2017-12-05T18:14:35.295Z,7.44
2017-12-05T18:15:49.368Z,7.47
2017-12-05T18:17:03.298Z,7.41
2017-12-05T18:18:18.194Z,7.4
2017-12-05T18:19:32.542Z,7.41
2017-12-05T18:20:46.299Z,7.29
2017-12-05T18:21:59.742Z,7.39
2017-12-05T18:23:13.503Z,7.4
2017-12-05T18:24:27.132Z,7.43
2017-12-05T18:25:42.814Z,7.37
2017-12-05T18:26:57.006Z,7.43
2017-12-05T18:28:11.263Z,7.33
2017-12-05T18:29:25.090Z,7.37
2017-12-05T18:30:40.148Z,7.43
2017-12-05T18:32:49.268Z,7.37
2017-12-05T18:34:10.030Z,7.48
2017-12-05T18:35:23.890Z,7.44
2017-12-05T18:36:47.157Z,7.33
2017-12-05T18:38:13.374Z,7.48
2017-12-05T18:39:30.828Z,7.5
2017-12-05T18:40:45.279Z,7.47
2017-12-05T18:41:59.627Z,7.48
2017-12-05T18:43:15.411Z,7.51
2017-12-05T18:44:30.353Z,7.44
2017-12-05T18:45:43.764Z,7.37
2017-12-05T18:46:58.295Z,7.26
2017-12-05T18:48:12.802Z,7.31
2017-12-05T18:49:26.726Z,7.4
2017-12-05T18:50:40.777Z,7.29
2017-12-05T18:51:55.908Z,7.32
2017-12-05T18:53:09.844Z,7.33
2017-12-05T18:54:25.420Z,7.41
2017-12-05T18:55:40.338Z,7.37
2017-12-05T18:56:55.695Z,7.43
2017-12-05T18:58:10.282Z,7.44
2017-12-05T18:59:25.564Z,7.43
2017-12-05T19:00:39.938Z,7.41
2017-12-05T19:01:54.421Z,7.37
2017-12-05T19:03:10.411Z,7.29
2017-12-05T19:04:24.949Z,7.41
2017-12-05T19:06:13.320Z,7.37
2017-12-05T19:07:27.238Z,7.39
2017-12-05T19:08:41.064Z,7.4
2017-12-05T19:09:54.973Z,7.37
2017-12-05T19:11:09.310Z,7.39
2017-12-05T19:12:37.794Z,7.36
2017-12-05T19:13:52.152Z,7.32
2017-12-05T19:15:05.844Z,7.31
2017-12-05T19:16:22.889Z,7.31
2017-12-05T19:17:37.102Z,7.36
2017-12-05T19:18:50.884Z,7.37
2017-12-05T19:20:04.574Z,7.4
2017-12-05T19:21:18.452Z,7.39
2017-12-05T19:22:47.433Z,7.31
2017-12-05T19:24:02.694Z,7.37
2017-12-05T19:25:18.191Z,7.28
2017-12-05T19:28:14.109Z,7.29
2017-12-05T19:31:43.268Z,7.31
2017-12-05T19:32:59.836Z,7.29
2017-12-05T19:34:32.243Z,7.31
2017-12-05T19:35:46.548Z,7.31
2017-12-05T19:37:01.425Z,7.37
2017-12-05T19:38:16.611Z,7.44
2017-12-05T19:40:00.641Z,7.41
2017-12-05T19:41:14.091Z,7.32
2017-12-05T19:42:28.093Z,7.41
2017-12-05T19:43:44.269Z,7.44
2017-12-05T19:46:39.852Z,7.36
2017-12-05T19:47:55.198Z,7.26
2017-12-05T19:49:09.033Z,7.25
2017-12-05T19:50:24.011Z,7.29
2017-12-05T19:51:40.751Z,7.36
2017-12-05T19:53:11.863Z,7.29
2017-12-05T19:56:53.913Z,7.31
2017-12-05T20:00:14.062Z,7.32
2017-12-05T20:01:45.300Z,7.4
2017-12-05T20:03:01.441Z,7.39
2017-12-05T20:04:15.690Z,7.37
2017-12-05T20:05:30.007Z,7.41
2017-12-05T20:06:45.190Z,7.44
2017-12-05T20:07:59.870Z,7.46
2017-12-05T20:09:15.677Z,7.48
2017-12-05T20:10:29.981Z,7.41
2017-12-05T20:13:57.698Z,7.28
2017-12-05T20:15:12.408Z,7.33
2017-12-05T20:16:26.489Z,7.29
2017-12-05T20:17:40.468Z,7.28
2017-12-05T20:18:54.723Z,7.31
2017-12-05T20:20:09.339Z,7.26
2017-12-05T20:21:23.579Z,7.36
2017-12-05T20:22:39.471Z,7.29
2017-12-05T20:24:08.432Z,7.32
2017-12-05T20:25:23.766Z,7.28
2017-12-05T20:26:38.416Z,7.31
2017-12-05T20:27:52.754Z,7.29
2017-12-05T20:29:07.943Z,7.29
2017-12-05T20:30:22.689Z,7.26
2017-12-05T20:31:37.146Z,7.39
2017-12-05T20:32:50.837Z,7.43
2017-12-05T20:34:20.203Z,7.43
2017-12-05T20:35:35.538Z,7.44
2017-12-05T20:36:55.000Z,7.33
2017-12-05T20:38:12.854Z,7.31
2017-12-05T20:39:27.107Z,7.36
2017-12-05T20:40:40.720Z,7.37
2017-12-05T20:41:55.288Z,7.28
2017-12-05T20:43:09.611Z,7.28
2017-12-05T20:44:38.667Z,7.28
2017-12-05T20:45:52.115Z,7.28
2017-12-05T20:47:05.777Z,7.33
2017-12-05T20:48:20.142Z,7.4
2017-12-05T20:49:34.265Z,7.28
2017-12-05T20:50:51.025Z,7.41
2017-12-05T20:52:04.691Z,7.4
2017-12-05T20:53:18.717Z,7.4
2017-12-05T20:56:16.434Z,7.31
2017-12-05T20:57:30.086Z,7.29
2017-12-05T20:58:44.877Z,7.29
2017-12-05T21:00:01.102Z,7.32
2017-12-05T21:01:14.794Z,7.29
2017-12-05T21:02:29.354Z,7.29
2017-12-05T21:04:19.261Z,7.29
2017-12-05T21:05:53.760Z,7.32
2017-12-05T21:07:07.742Z,7.26
2017-12-05T21:08:22.382Z,7.29
2017-12-05T21:09:37.221Z,7.29
2017-12-05T21:10:52.817Z,7.23
2017-12-05T21:12:06.304Z,7.25
2017-12-05T21:13:20.299Z,7.13
2017-12-05T21:14:34.679Z,7.18
2017-12-05T21:15:49.383Z,7.1
2017-12-05T21:17:04.945Z,7.18
2017-12-05T21:18:23.150Z,7.25
2017-12-05T21:19:38.403Z,7.08
2017-12-05T21:22:57.162Z,7.29
2017-12-05T21:24:12.049Z,7.29
2017-12-05T21:25:26.459Z,7.11
2017-12-05T21:26:40.799Z,7.15
2017-12-05T21:28:24.917Z,7.11
2017-12-05T21:29:38.882Z,6.97
2017-12-05T21:30:52.377Z,6.97
2017-12-05T21:32:21.685Z,6.89
2017-12-05T21:33:35.070Z,6.93
2017-12-05T21:34:50.374Z,6.9
2017-12-05T21:36:21.949Z,6.93
2017-12-05T21:40:34.313Z,6.96
2017-12-05T21:41:49.449Z,6.93
2017-12-05T21:43:04.399Z,6.97
2017-12-05T21:44:17.987Z,6.92
2017-12-05T21:47:45.274Z,6.97
2017-12-05T21:48:58.935Z,6.97
2017-12-05T21:50:12.565Z,6.9
2017-12-05T21:52:10.863Z,7.03
2017-12-05T21:53:27.082Z,7
2017-12-05T21:54:48.921Z,6.92
2017-12-05T21:56:02.588Z,7.01
2017-12-05T21:57:32.112Z,7.01
2017-12-05T21:58:46.152Z,6.89
2017-12-05T22:00:01.034Z,6.92
2017-12-05T22:01:14.556Z,7.03
2017-12-05T22:04:27.931Z,7.11
2017-12-05T22:05:41.856Z,7.11
2017-12-05T22:06:56.863Z,7.03
2017-12-05T22:08:11.867Z,7.01
2017-12-05T22:09:26.045Z,7.14
2017-12-05T22:10:40.136Z,7.01
2017-12-05T22:11:54.029Z,7
2017-12-05T22:13:22.750Z,7.05
2017-12-05T22:14:36.736Z,7
2017-12-05T22:15:50.485Z,7.03
2017-12-05T22:17:04.237Z,6.97
2017-12-05T22:18:17.939Z,7.03
2017-12-05T22:19:46.753Z,6.96
2017-12-05T22:21:00.467Z,6.9
2017-12-05T22:22:14.225Z,6.97
2017-12-05T22:25:11.467Z,7.13
2017-12-05T22:26:26.125Z,7.01
2017-12-05T22:27:39.949Z,7
2017-12-05T22:28:54.049Z,6.9
2017-12-05T22:30:07.952Z,6.9
2017-12-05T22:31:22.837Z,6.83
2017-12-05T22:32:36.436Z,6.89
2017-12-05T22:36:03.913Z,6.95
2017-12-05T22:37:17.307Z,6.86
2017-12-05T22:38:30.984Z,6.86
2017-12-05T22:39:59.576Z,6.85
2017-12-05T22:41:13.039Z,6.82
2017-12-05T22:42:26.745Z,6.89
2017-12-05T22:43:41.371Z,6.87
2017-12-05T22:44:57.034Z,6.86
2017-12-05T22:46:19.802Z,6.96
2017-12-05T22:47:40.530Z,6.95
2017-12-05T22:48:54.963Z,6.93
2017-12-05T22:50:08.910Z,6.93
2017-12-05T22:51:22.607Z,6.93
2017-12-05T22:52:37.315Z,7
2017-12-05T22:53:50.880Z,7
2017-12-05T22:55:07.943Z,7.04
2017-12-05T22:56:21.666Z,6.97
2017-12-05T22:57:35.685Z,6.97
2017-12-05T22:58:49.143Z,6.95
2017-12-05T23:00:03.482Z,7.03
2017-12-05T23:02:16.701Z,6.89
2017-12-05T23:03:30.085Z,6.95
2017-12-05T23:04:43.458Z,6.89
2017-12-05T23:06:11.916Z,6.95
2017-12-05T23:07:25.732Z,6.95
2017-12-05T23:08:39.114Z,6.82
2017-12-05T23:09:53.155Z,6.87
2017-12-05T23:11:06.847Z,6.85
2017-12-05T23:12:21.336Z,6.89
2017-12-05T23:13:35.098Z,6.95
2017-12-05T23:14:49.439Z,6.86
2017-12-05T23:16:03.167Z,6.82
2017-12-05T23:17:17.608Z,6.89
2017-12-05T23:18:31.854Z,6.83
2017-12-05T23:19:45.666Z,6.83
2017-12-05T23:20:59.870Z,6.8
2017-12-05T23:22:14.043Z,6.85
2017-12-05T23:23:27.735Z,6.83
2017-12-05T23:24:41.143Z,6.87
2017-12-05T23:25:55.061Z,6.83
2017-12-05T23:27:08.737Z,6.83
2017-12-05T23:28:22.151Z,6.95
2017-12-05T23:29:35.665Z,7
2017-12-05T23:30:49.038Z,6.8
2017-12-05T23:32:02.895Z,6.9
2017-12-05T23:34:01.468Z,6.86
2017-12-05T23:35:14.866Z,6.82
2017-12-05T23:36:28.536Z,6.87
2017-12-05T23:37:42.320Z,6.78
2017-12-05T23:38:55.840Z,6.78
2017-12-05T23:40:10.185Z,6.82
2017-12-05T23:41:23.873Z,6.85
2017-12-05T23:42:38.482Z,6.89
2017-12-05T23:43:52.661Z,6.87
2017-12-05T23:45:21.317Z,6.82
2017-12-05T23:46:35.221Z,6.86
2017-12-05T23:47:49.022Z,6.83
2017-12-05T23:49:03.256Z,6.83
2017-12-05T23:50:16.938Z,6.85
2017-12-05T23:51:30.621Z,6.87
2017-12-05T23:52:44.918Z,6.87
2017-12-05T23:53:58.902Z,6.85
2017-12-05T23:55:12.683Z,6.83
2017-12-05T23:56:56.450Z,6.82
2017-12-05T23:58:10.286Z,6.74
2017-12-05T23:59:23.847Z,6.75
